Amunt
Inicio > meteoXarxa
Fes-te'n soci

METEOXARXA

Vinaròs
Ubicació oest
Comarca el Baix Maestrat
Altitud (msnm) 13
Posició geogràfica 40° 28' 36.84" N, 00° 28' 24.60" E
Model Oregon WMR928
Presa de dades
Font de les dades Toni
Estadístiques. Resum
Data Temperatura (ºC) Humitat (%) Pressió (hPa) Vent (km/h) Precipit. (mm)
Mínima Mitjana Màxima Mínima Mitjana Màxima Mínima Mitjana Màxima Predom. Mitjana Ràfega màxima Total Dies de pluja
Mínima Mitjana Màxima Mínima Mitjana Màxima
Últimes dades diàries
15-12-2016 7,0     10,8     14,5 61,0 80,5 100,0 1.021,0 1.022,0 1.023,0 0,0 0,2  
14-12-2016 6,7     11,3     16,0 63,0 81,5 100,0 1.021,0 1.023,5 1.026,0 0,0 0,0  
13-12-2016 4,7     9,6     14,5 57,0 78,5 100,0 1.024,0 1.025,5 1.027,0 0,0 0,0  
12-12-2016 5,2     10,6     15,9 55,0 74,5 94,0 1.022,0 1.023,5 1.025,0 0,0 0,0  
11-12-2016 6,7     11,2     15,6 71,0 84,5 98,0 1.024,0 1.026,0 1.028,0 0,0 0,0  
10-12-2016 8,2     13,1     17,9 60,0 80,0 100,0 1.028,0 1.030,0 1.032,0 0,0 0,0  
09-12-2016 6,8     12,1     17,4 50,0 73,5 97,0 1.032,0 1.034,0 1.036,0 0,0 0,0  
08-12-2016 8,2     12,2     16,2 56,0 78,0 100,0 1.034,0 1.035,0 1.036,0 0,0 0,0  
07-12-2016 8,6     12,6     16,5 56,0 78,0 100,0 1.029,0 1.032,0 1.035,0 0,0 0,0  
06-12-2016 9,9     14,2     18,4 53,0 76,0 99,0 1.024,0 1.027,0 1.030,0 0,0 0,0  
05-12-2016 15,1     16,3     17,5 73,0 86,5 100,0 1.017,0 1.020,5 1.024,0 0,0 0,2  
04-12-2016 11,9     14,4     16,9 86,0 93,0 100,0 1.016,0 1.017,0 1.018,0 0,0 13,9  
03-12-2016 6,3     9,8     13,3 74,0 87,0 100,0 1.016,0 1.017,0 1.018,0 0,0 9,1  
02-12-2016 7,2     12,1     17,0 54,0 76,0 98,0 1.017,0 1.021,0 1.025,0 0,0 0,0  
01-12-2016 8,1     12,1     16,1 61,0 80,5 100,0 1.025,0 1.028,5 1.032,0 0,0 0,0  
30-11-2016 10,3     12,9     15,5 54,0 70,0 86,0 1.029,0 1.031,5 1.034,0 0,0 0,0  
29-11-2016 9,9     12,7     15,5 63,0 81,5 100,0 1.018,0 1.023,5 1.029,0 0,0 9,4  
28-11-2016 10,7     12,6     14,4 74,0 87,0 100,0 1.010,0 1.013,5 1.017,0 0,0 18,7  
27-11-2016 10,9     14,1     17,2 55,0 77,5 100,0 1.010,0 1.011,0 1.012,0 0,0 8,9  
26-11-2016 9,1     12,9     16,8 74,0 87,0 100,0 1.010,0 1.012,5 1.015,0 0,0 19,7  
25-11-2016 7,0     11,2     15,3 44,0 65,0 86,0 1.012,0 1.013,5 1.015,0 0,0 0,0  
24-11-2016 7,5     11,4     15,4 45,0 68,5 92,0 1.006,0 1.009,5 1.013,0 0,0 0,0  
23-11-2016 9,5     14,2     18,8 78,0 89,0 100,0 1.002,0 1.004,0 1.006,0 0,0 9,1  
22-11-2016 13,1     15,7     18,2 83,0 91,5 100,0 1.004,0 1.006,5 1.009,0 0,0 7,7  
21-11-2016 13,2     16,1     19,1 60,0 80,0 100,0 1.004,0 1.006,0 1.008,0 0,0 0,0  
20-11-2016 9,9     14,1     18,2 53,0 76,5 100,0 1.009,0 1.012,0 1.015,0 0,0 4,1  
19-11-2016 12,2     15,8     19,4 40,0 65,5 91,0 1.014,0 1.015,5 1.017,0 0,0 0,0  
18-11-2016 7,8     13,6     19,4 60,0 78,5 97,0 1.013,0 1.016,0 1.019,0 0,0 0,0  
17-11-2016 6,4     12,6     18,7 58,0 77,5 97,0 1.019,0 1.021,5 1.024,0 0,0 0,0  
16-11-2016 6,3     11,9     17,5 43,0 62,5 82,0 1.024,0 1.027,0 1.030,0 0,0 0,0  
15-11-2016 8,5     9,2     9,9 64,0 70,5 77,0 1.029,0 1.029,5 1.030,0 0,0 0,0  
14-11-2016 13,3     15,4     17,5 45,0 57,5 70,0 1.023,0 1.025,0 1.027,0 0,0 0,0  
Dades del mes en curs (actualitzades fins l'últim dia disponible)
12/2016 4,7 8,0 15,1 12,2 13,3 16,2 18,4 50,0 80,5 100,0 1.016,0 1.025,5 1.036,0   0,0 23,4  
Últimes dades mensuals
02/2017
01/2017
12/2016 4,7 8,0 15,1 12,2 13,3 16,2 18,4 73,5 80,5 93,0 1.017,0 1.025,5 1.035,0 0,0 23,4 4
11/2016 6,3 10,4 13,8 14,4 9,9 18,5 25,6 40,0 69,2 91,5 1.004,0 1.017,3 1.031,5 0,0 78,3 9
10/2016 12,6 16,0 19,5 19,6 18,1 23,3 27,6 62,5 77,5 89,0 1.001,5 1.017,4 1.031,5 39,0 46,3 9
09/2016 13,8 18,5 22,8 23,1 24,7 27,6 31,7 43,5 70,2 83,5 1.011,5 1.018,4 1.028,0 50,0 35,3 4
08/2016 17,5 20,9 25,3 25,0 24,9 29,2 30,6 58,0 70,9 84,0 1.011,0 1.018,9 1.024,5 40,0 9,1 3
07/2016 20,4 21,5 23,1 25,8 29,6 30,0 30,9 72,0 74,7 79,0 1.016,0 1.018,3 1.020,5 32,0 0,0 0
06/2016 14,3 17,9 21,6 21,7 22,7 25,4 30,4 32,5 66,2 82,0 1.005,0 1.018,1 1.025,5 45,0 3,3 4
05/2016 10,2 14,0 18,2 17,7 16,6 21,4 26,2 31,0 68,5 100,0 1.006,5 1.016,6 1.023,5 53,0 23,0 7
04/2016 7,5 11,3 14,3 15,1 15,0 19,0 22,8 35,0 68,9 89,0 1.007,0 1.014,8 1.021,0 52,0 33,8 7
03/2016 4,2 8,8 12,1 12,9 12,2 17,0 23,3 33,5 60,8 94,5 1.005,0 1.015,6 1.022,5 62,0 53,3 5
02/2016 2,2 7,9 14,5 12,5 12,3 17,1 25,7 36,0 60,9 84,0 993,5 1.017,9 1.035,5 73,0 10,9 8
Dades de l'any en curs (actualitzades fins l'últim dia disponible)
2016 2,2 13,2 25,3 17,3 9,9 21,3 31,7 23,0 68,6 100,0 989,0 1.018,0 1.038,0   73,0 317,9  
Últimes dades anuals
2011 -0,5 13,6 24,9 17,5 7,8 21,4 31,5 12,0 53,9 98,0 88,0 681,7 64
2012 0,3 13,1 18,5 17,2 18,0 21,3 34,6 27,3 53,7 68,7 1.015,1 1.017,6 1.020,1 51,0 408,3 49
2013 0,6 13,2 17,5 17,2 17,8 21,2 31,7 47,5 63,6 71,6 1.007,0 1.016,5 1.022,5 86,0 500,3 64
2014 1,1 14,5 25,3 18,2 10,6 21,9 32,9 25,0 62,5 95,0 994,0 1.014,9 1.031,5 71,0 340,1 59
2015 1,5 13,5 19,9 17,6 18,9 21,6 33,2 43,9 62,1 76,5 1.016,8 1.020,6 1.030,9 75,0 514,8 53